createdAt,value
2023-06-13T00:01:31.211Z,6.82
2023-06-13T00:03:02.614Z,7.40
2023-06-13T00:04:34.327Z,6.17
2023-06-13T00:06:05.702Z,7.21
2023-06-13T00:07:37.147Z,7.16
2023-06-13T00:09:08.495Z,6.76
2023-06-13T00:10:39.949Z,6.38
2023-06-13T00:12:11.431Z,7.70
2023-06-13T00:13:42.870Z,6.31
2023-06-13T00:15:19.541Z,7.43
2023-06-13T00:16:50.929Z,6.82
2023-06-13T00:18:22.357Z,7.90
2023-06-13T00:19:53.835Z,8.57
2023-06-13T00:21:25.422Z,8.78
2023-06-13T00:22:57.042Z,9.00
2023-06-13T00:24:28.610Z,7.90
2023-06-13T00:26:00.404Z,7.96
2023-06-13T00:27:31.877Z,10.19
2023-06-13T00:29:03.472Z,8.84
2023-06-13T00:30:34.992Z,8.70
2023-06-13T00:32:07.569Z,7.71
2023-06-13T00:33:39.684Z,8.41
2023-06-13T00:35:11.035Z,9.16
2023-06-13T00:36:42.448Z,8.35
2023-06-13T00:38:13.921Z,9.65
2023-06-13T00:39:45.377Z,6.42
2023-06-13T00:41:16.871Z,7.52
2023-06-13T00:42:48.336Z,7.13
2023-06-13T00:44:19.711Z,7.52
2023-06-13T00:45:51.174Z,8.30
2023-06-13T00:47:22.807Z,7.34
2023-06-13T00:48:54.257Z,7.70
2023-06-13T00:50:25.792Z,9.53
2023-06-13T00:51:57.532Z,8.82
2023-06-13T00:53:28.958Z,6.17
2023-06-13T00:55:00.335Z,7.32
2023-06-13T00:56:31.689Z,7.13
2023-06-13T00:58:03.118Z,8.02
2023-06-13T00:59:35.018Z,6.00
2023-06-13T01:01:06.360Z,8.74
2023-06-13T01:02:37.866Z,9.28
2023-06-13T01:04:09.305Z,7.69
2023-06-13T01:05:40.768Z,7.80
2023-06-13T01:07:12.146Z,8.96
2023-06-13T01:08:43.533Z,6.94
2023-06-13T01:10:15.725Z,8.37
2023-06-13T01:11:47.416Z,9.24
2023-06-13T01:13:18.805Z,7.07
2023-06-13T01:14:50.170Z,8.71
2023-06-13T01:16:21.744Z,7.23
2023-06-13T01:17:53.179Z,8.97
2023-06-13T01:19:24.730Z,7.54
2023-06-13T01:20:56.070Z,7.98
2023-06-13T01:22:27.476Z,9.69
2023-06-13T01:23:59.083Z,9.75
2023-06-13T01:25:30.720Z,8.64
2023-06-13T01:27:02.117Z,9.14
2023-06-13T01:28:38.461Z,9.42
2023-06-13T01:30:09.820Z,7.58
2023-06-13T01:31:41.208Z,8.61
2023-06-13T01:33:13.180Z,8.91
2023-06-13T01:34:44.615Z,9.19
2023-06-13T01:36:16.252Z,9.93
2023-06-13T01:37:47.620Z,8.43
2023-06-13T01:39:19.151Z,11.01
2023-06-13T01:40:50.547Z,8.98
2023-06-13T01:42:26.955Z,8.77
2023-06-13T01:43:58.402Z,8.45
2023-06-13T01:45:29.792Z,8.17
2023-06-13T01:47:01.403Z,8.48
2023-06-13T01:48:32.888Z,8.77
2023-06-13T01:50:04.300Z,8.52
2023-06-13T01:51:35.803Z,7.43
2023-06-13T01:53:07.234Z,8.16
2023-06-13T01:54:43.601Z,6.94
2023-06-13T01:56:14.972Z,9.54
2023-06-13T01:57:46.515Z,9.88
2023-06-13T01:59:17.867Z,8.97
2023-06-13T02:00:49.248Z,8.04
2023-06-13T02:02:20.677Z,9.76
2023-06-13T02:03:52.209Z,8.20
2023-06-13T02:05:23.630Z,8.45
2023-06-13T02:06:54.976Z,7.30
2023-06-13T02:08:26.588Z,9.32
2023-06-13T02:09:58.227Z,9.09
2023-06-13T02:11:29.721Z,7.53
2023-06-13T02:13:01.170Z,8.17
2023-06-13T02:14:32.621Z,8.57
2023-06-13T02:16:04.024Z,9.81
2023-06-13T02:17:35.669Z,8.51
2023-06-13T02:19:07.321Z,7.45
2023-06-13T02:20:38.671Z,9.60
2023-06-13T02:22:10.117Z,8.46
2023-06-13T02:23:41.588Z,8.58
2023-06-13T02:25:13.014Z,7.52
2023-06-13T02:26:44.733Z,6.50
2023-06-13T02:28:16.114Z,7.38
2023-06-13T02:29:47.455Z,8.46
2023-06-13T02:31:18.871Z,10.55
2023-06-13T02:32:50.529Z,9.27
2023-06-13T02:34:21.977Z,8.31
2023-06-13T02:35:53.315Z,7.30
2023-06-13T02:37:25.996Z,7.68
2023-06-13T02:38:57.500Z,9.00
2023-06-13T02:40:28.998Z,8.27
2023-06-13T02:42:00.384Z,7.90
2023-06-13T02:43:31.789Z,9.98
2023-06-13T02:45:03.230Z,8.91
2023-06-13T02:46:34.736Z,10.58
2023-06-13T02:48:06.290Z,9.21
2023-06-13T02:49:37.721Z,9.19
2023-06-13T02:51:09.058Z,8.18
2023-06-13T02:52:40.401Z,9.63
2023-06-13T02:54:11.944Z,8.62
2023-06-13T02:55:43.424Z,8.94
2023-06-13T02:57:19.907Z,7.20
2023-06-13T02:58:51.344Z,7.72
2023-06-13T03:00:22.949Z,7.50
2023-06-13T03:01:54.481Z,10.09
2023-06-13T03:03:26.116Z,9.91
2023-06-13T03:04:57.690Z,9.15
2023-06-13T03:06:29.154Z,8.31
2023-06-13T03:08:00.516Z,9.02
2023-06-13T03:09:32.162Z,11.29
2023-06-13T03:11:03.559Z,12.24
2023-06-13T03:12:34.982Z,7.97
2023-06-13T03:14:06.411Z,8.04
2023-06-13T03:15:37.955Z,7.60
2023-06-13T03:17:09.290Z,10.08
2023-06-13T03:18:40.814Z,10.68
2023-06-13T03:20:12.309Z,9.76
2023-06-13T03:21:43.705Z,9.49
2023-06-13T03:23:15.074Z,8.70
2023-06-13T03:24:46.517Z,11.03
2023-06-13T03:26:17.927Z,7.51
2023-06-13T03:27:49.329Z,8.16
2023-06-13T03:29:20.714Z,7.91
2023-06-13T03:30:52.219Z,10.75
2023-06-13T03:32:23.911Z,10.36
2023-06-13T03:33:55.438Z,8.47
2023-06-13T03:35:26.865Z,7.99
2023-06-13T03:36:58.398Z,8.61
2023-06-13T03:38:29.831Z,10.51
2023-06-13T03:40:01.300Z,9.36
2023-06-13T03:41:32.807Z,8.18
2023-06-13T03:43:04.116Z,10.01
2023-06-13T03:44:35.514Z,8.32
2023-06-13T03:46:06.998Z,9.21
2023-06-13T03:47:38.444Z,8.63
2023-06-13T03:49:10.264Z,9.47
2023-06-13T03:50:41.677Z,10.50
2023-06-13T03:52:13.197Z,9.42
2023-06-13T03:53:44.804Z,8.89
2023-06-13T03:55:16.155Z,9.18
2023-06-13T03:56:47.809Z,9.92
2023-06-13T03:58:19.203Z,11.38
2023-06-13T03:59:50.611Z,9.58
2023-06-13T04:01:22.008Z,8.94
2023-06-13T04:02:53.537Z,7.63
2023-06-13T04:04:25.168Z,10.22
2023-06-13T04:05:56.777Z,10.32
2023-06-13T04:07:28.220Z,7.83
2023-06-13T04:08:59.578Z,8.11
2023-06-13T04:10:31.104Z,8.88
2023-06-13T04:12:02.531Z,8.84
2023-06-13T04:13:33.997Z,9.07
2023-06-13T04:15:05.436Z,8.70
2023-06-13T04:16:36.931Z,9.28
2023-06-13T04:18:08.409Z,10.32
2023-06-13T04:19:39.893Z,9.22
2023-06-13T04:21:11.309Z,9.00
2023-06-13T04:22:42.851Z,9.33
2023-06-13T04:24:14.488Z,9.58
2023-06-13T04:25:45.986Z,9.90
2023-06-13T04:27:17.458Z,10.76
2023-06-13T04:28:48.989Z,8.79
2023-06-13T04:30:20.497Z,8.93
2023-06-13T04:31:51.944Z,9.15
2023-06-13T04:33:23.696Z,8.59
2023-06-13T04:34:55.117Z,8.18
2023-06-13T04:36:26.573Z,8.86
2023-06-13T04:37:58.037Z,9.15
2023-06-13T04:39:29.420Z,8.25
2023-06-13T04:41:01.016Z,8.81
2023-06-13T04:42:32.431Z,8.05
2023-06-13T04:44:03.924Z,10.49
2023-06-13T04:45:35.360Z,9.18
2023-06-13T04:47:06.803Z,10.07
2023-06-13T04:48:38.364Z,8.38
2023-06-13T04:50:09.876Z,9.54
2023-06-13T04:51:41.360Z,9.01
2023-06-13T04:53:14.020Z,9.46
2023-06-13T04:54:45.479Z,10.13
2023-06-13T04:56:16.872Z,10.22
2023-06-13T04:57:48.286Z,12.04
2023-06-13T04:59:19.667Z,9.71
2023-06-13T05:00:51.090Z,10.09
2023-06-13T05:02:22.416Z,10.14
2023-06-13T05:03:53.941Z,8.66
2023-06-13T05:05:25.398Z,9.97
2023-06-13T05:06:57.222Z,10.36
2023-06-13T05:08:28.705Z,11.52
2023-06-13T05:10:00.238Z,8.47
2023-06-13T05:11:31.608Z,10.47
2023-06-13T05:13:03.036Z,9.28
2023-06-13T05:14:34.578Z,9.45
2023-06-13T05:16:06.002Z,7.92
2023-06-13T05:17:37.482Z,8.35
2023-06-13T05:19:08.841Z,8.03
2023-06-13T05:20:40.665Z,11.98
2023-06-13T05:22:12.008Z,12.04
2023-06-13T05:23:43.406Z,9.67
2023-06-13T05:25:14.985Z,9.83
2023-06-13T05:26:46.577Z,12.61
2023-06-13T05:28:18.037Z,8.63
2023-06-13T05:29:49.405Z,9.54
2023-06-13T05:31:20.823Z,9.66
2023-06-13T05:32:52.501Z,10.16
2023-06-13T05:34:24.062Z,11.90
2023-06-13T05:35:57.925Z,14.40
2023-06-13T05:37:30.015Z,12.31
2023-06-13T05:39:01.957Z,9.82
2023-06-13T05:40:33.444Z,10.81
2023-06-13T05:42:04.863Z,10.82
2023-06-13T05:43:36.376Z,9.31
2023-06-13T05:45:07.740Z,10.95
2023-06-13T05:46:39.234Z,12.16
2023-06-13T05:48:10.595Z,10.34
2023-06-13T05:49:42.182Z,11.85
2023-06-13T05:51:13.675Z,10.22
2023-06-13T05:52:45.083Z,11.18
2023-06-13T05:54:17.218Z,9.99
2023-06-13T05:55:50.035Z,10.20
2023-06-13T05:57:21.598Z,11.43
2023-06-13T05:58:58.013Z,9.05
2023-06-13T06:00:29.779Z,10.02
2023-06-13T06:02:01.351Z,10.24
2023-06-13T06:03:59.056Z,8.95
2023-06-13T06:05:30.572Z,8.03
2023-06-13T06:07:02.463Z,9.75
2023-06-13T06:08:33.977Z,12.31
2023-06-13T06:10:05.346Z,6.76
2023-06-13T06:11:37.893Z,8.08
2023-06-13T06:13:09.331Z,9.40
2023-06-13T06:14:40.920Z,10.32
2023-06-13T06:16:12.325Z,9.50
2023-06-13T06:17:43.961Z,9.11
2023-06-13T06:19:15.456Z,9.35
2023-06-13T06:20:46.949Z,7.30
2023-06-13T06:22:18.519Z,8.56
2023-06-13T06:23:50.059Z,8.29
2023-06-13T06:25:24.504Z,7.57
2023-06-13T06:26:57.748Z,10.60
2023-06-13T06:28:29.140Z,8.69
2023-06-13T06:30:00.569Z,10.15
2023-06-13T06:31:32.340Z,9.64
2023-06-13T06:33:04.144Z,10.26
2023-06-13T06:34:35.509Z,11.85
2023-06-13T06:36:06.892Z,11.62
2023-06-13T06:37:38.390Z,10.50
2023-06-13T06:39:09.869Z,10.10
2023-06-13T06:40:41.329Z,11.21
2023-06-13T06:42:12.794Z,11.14
2023-06-13T06:43:44.225Z,10.68
2023-06-13T06:45:25.898Z,8.59
2023-06-13T06:47:12.382Z,8.76
2023-06-13T06:48:43.777Z,8.42
2023-06-13T06:50:15.478Z,9.14
2023-06-13T06:51:47.088Z,9.68
2023-06-13T06:53:18.577Z,9.99
2023-06-13T06:54:50.104Z,10.55
2023-06-13T06:56:21.531Z,8.37
2023-06-13T06:57:52.915Z,8.78
2023-06-13T06:59:24.346Z,9.80
2023-06-13T07:00:57.060Z,9.55
2023-06-13T07:02:28.601Z,9.11
2023-06-13T07:04:00.218Z,7.56
2023-06-13T07:05:31.652Z,8.95
2023-06-13T07:07:04.184Z,7.34
2023-06-13T07:08:35.568Z,6.38
2023-06-13T07:10:06.982Z,7.41
2023-06-13T07:11:38.613Z,7.84
2023-06-13T07:13:10.281Z,6.59
2023-06-13T07:14:41.736Z,7.38
2023-06-13T07:16:13.133Z,7.30
2023-06-13T07:17:49.731Z,7.13
2023-06-13T07:19:21.148Z,12.76
2023-06-13T07:20:52.585Z,7.21
2023-06-13T07:22:23.992Z,8.01
2023-06-13T07:24:06.628Z,7.98
2023-06-13T07:25:38.850Z,6.99
2023-06-13T07:27:10.339Z,6.65
2023-06-13T07:28:41.863Z,6.93
2023-06-13T07:30:13.453Z,6.72
2023-06-13T07:31:46.224Z,7.18
2023-06-13T07:33:17.723Z,7.26
2023-06-13T07:35:04.151Z,8.83
2023-06-13T07:36:37.581Z,7.06
2023-06-13T07:38:09.011Z,10.05
2023-06-13T07:39:40.474Z,9.43
2023-06-13T07:41:11.978Z,7.51
2023-06-13T07:42:43.417Z,7.56
2023-06-13T07:44:43.105Z,7.95
2023-06-13T07:46:23.731Z,7.13
2023-06-13T07:47:55.366Z,7.55
2023-06-13T07:49:27.113Z,7.76
2023-06-13T07:50:58.641Z,9.25
2023-06-13T07:52:30.295Z,6.90
2023-06-13T07:54:01.926Z,7.55
2023-06-13T07:57:43.788Z,7.11
2023-06-13T07:59:25.768Z,7.77
2023-06-13T08:00:57.406Z,7.91
2023-06-13T08:02:29.068Z,6.87
2023-06-13T08:04:00.787Z,7.82
2023-06-13T08:05:32.477Z,8.98
2023-06-13T08:07:09.047Z,7.36
2023-06-13T08:08:40.509Z,8.19
2023-06-13T08:10:12.219Z,7.09
2023-06-13T08:11:43.974Z,5.13
2023-06-13T08:13:15.519Z,7.95
2023-06-13T08:14:47.509Z,8.99
2023-06-13T08:16:19.158Z,7.01
2023-06-13T08:18:22.364Z,7.62
2023-06-13T08:20:04.056Z,8.03
2023-06-13T08:21:35.541Z,7.34
2023-06-13T08:23:07.370Z,8.53
2023-06-13T08:24:39.042Z,7.26
2023-06-13T08:26:10.863Z,7.54
2023-06-13T08:27:42.583Z,9.70
2023-06-13T08:29:17.253Z,7.17
2023-06-13T08:30:49.929Z,8.51
2023-06-13T08:32:21.607Z,7.48
2023-06-13T08:34:07.954Z,8.24
2023-06-13T08:35:42.323Z,8.70
2023-06-13T08:37:14.036Z,8.21
2023-06-13T08:38:51.801Z,8.90
2023-06-13T08:40:23.950Z,9.74
2023-06-13T08:42:00.424Z,6.64
2023-06-13T08:43:31.967Z,7.43
2023-06-13T08:45:03.542Z,8.05
2023-06-13T08:46:35.204Z,8.72
2023-06-13T08:48:17.059Z,8.03
2023-06-13T08:49:48.750Z,9.03
2023-06-13T08:51:20.281Z,6.97
2023-06-13T08:52:51.783Z,7.08
2023-06-13T08:54:28.615Z,8.69
2023-06-13T08:56:11.603Z,7.11
2023-06-13T08:57:43.587Z,8.22
2023-06-13T08:59:15.644Z,8.11
2023-06-13T09:01:51.216Z,8.50
2023-06-13T09:03:22.698Z,8.49
2023-06-13T09:05:09.620Z,7.08
2023-06-13T09:08:42.674Z,7.41
2023-06-13T09:10:24.217Z,7.66
2023-06-13T09:11:55.763Z,8.88
2023-06-13T09:13:27.595Z,8.58
2023-06-13T09:14:59.274Z,6.21
2023-06-13T09:16:36.233Z,8.17
2023-06-13T09:18:08.977Z,7.29
2023-06-13T09:19:40.575Z,8.30
2023-06-13T09:21:18.759Z,7.07
2023-06-13T09:22:51.115Z,7.34
2023-06-13T09:24:22.701Z,6.88
2023-06-13T09:25:54.236Z,8.24
2023-06-13T09:29:40.414Z,7.54
2023-06-13T09:31:12.356Z,6.48
2023-06-13T09:32:44.004Z,6.57
2023-06-13T09:34:15.463Z,10.49
2023-06-13T09:35:46.910Z,7.88
2023-06-13T09:37:19.344Z,6.36
2023-06-13T09:38:52.539Z,7.02
2023-06-13T09:40:24.069Z,7.06
2023-06-13T09:41:55.617Z,7.99
2023-06-13T09:43:27.060Z,9.37
2023-06-13T09:45:21.272Z,6.22
2023-06-13T09:46:52.817Z,7.76
2023-06-13T09:48:24.504Z,6.02
2023-06-13T09:49:57.102Z,7.30
2023-06-13T09:51:29.384Z,6.65
2023-06-13T09:53:00.930Z,6.40
2023-06-13T09:54:34.783Z,7.15
2023-06-13T09:56:07.225Z,7.34
2023-06-13T09:57:55.357Z,7.61
2023-06-13T09:59:40.102Z,6.23
2023-06-13T10:01:11.661Z,7.17
2023-06-13T10:02:43.237Z,7.59
2023-06-13T10:04:14.698Z,8.46
2023-06-13T10:05:46.315Z,7.47
2023-06-13T10:07:17.795Z,5.66
2023-06-13T10:08:49.285Z,6.71
2023-06-13T10:10:20.956Z,8.13
2023-06-13T10:11:52.643Z,6.07
2023-06-13T10:13:24.090Z,7.71
2023-06-13T10:14:55.710Z,8.09
2023-06-13T10:16:32.215Z,8.07
2023-06-13T10:18:04.290Z,10.35
2023-06-13T10:19:40.829Z,7.13
2023-06-13T10:21:12.331Z,7.87
2023-06-13T10:22:44.170Z,7.56
2023-06-13T10:24:16.521Z,6.99
2023-06-13T10:25:48.109Z,7.31
2023-06-13T10:27:19.573Z,7.61
2023-06-13T10:28:51.082Z,8.60
2023-06-13T10:30:22.592Z,6.43
2023-06-13T10:31:59.178Z,6.88
2023-06-13T10:33:43.166Z,6.51
2023-06-13T10:35:31.208Z,5.83
2023-06-13T10:37:17.729Z,6.92
2023-06-13T10:39:20.281Z,6.98
2023-06-13T10:41:01.704Z,8.08
2023-06-13T10:42:34.511Z,6.30
2023-06-13T10:44:06.117Z,8.68
2023-06-13T10:45:40.601Z,8.25
2023-06-13T10:47:23.989Z,8.52
2023-06-13T10:49:01.416Z,9.64
2023-06-13T10:50:34.345Z,8.64
2023-06-13T10:52:12.419Z,7.12
2023-06-13T10:54:15.666Z,8.00
2023-06-13T10:55:58.792Z,5.85
2023-06-13T10:57:30.407Z,8.36
2023-06-13T10:59:02.083Z,7.96
2023-06-13T11:00:43.636Z,7.06
2023-06-13T11:02:15.495Z,8.10
2023-06-13T11:03:47.265Z,8.61
2023-06-13T11:05:21.298Z,9.39
2023-06-13T11:06:58.111Z,9.52
2023-06-13T11:08:46.547Z,8.60
2023-06-13T11:10:20.317Z,9.06
2023-06-13T11:11:51.981Z,7.26
2023-06-13T11:13:30.576Z,8.81
2023-06-13T11:15:02.146Z,8.59
2023-06-13T11:16:33.713Z,7.80
2023-06-13T11:18:05.459Z,7.84
2023-06-13T11:19:37.098Z,6.25
2023-06-13T11:21:08.646Z,7.25
2023-06-13T11:22:40.441Z,7.97
2023-06-13T11:24:12.099Z,8.09
2023-06-13T11:25:43.904Z,6.85
2023-06-13T11:27:15.736Z,8.13
2023-06-13T11:28:47.658Z,9.46
2023-06-13T11:30:20.126Z,9.30
2023-06-13T11:32:02.015Z,7.82
2023-06-13T11:33:48.783Z,7.74
2023-06-13T11:35:20.784Z,7.28
2023-06-13T11:37:12.339Z,6.69
2023-06-13T11:39:04.525Z,8.93
2023-06-13T11:40:36.477Z,8.23
2023-06-13T11:42:29.357Z,9.49
2023-06-13T11:44:02.498Z,8.06
2023-06-13T11:46:04.215Z,9.75
2023-06-13T11:47:54.620Z,8.48
2023-06-13T11:49:27.844Z,7.57
2023-06-13T11:50:59.543Z,5.71
2023-06-13T11:52:31.257Z,7.11
2023-06-13T11:54:02.840Z,8.03
2023-06-13T11:55:34.814Z,7.05
2023-06-13T11:57:06.843Z,7.62
2023-06-13T11:58:38.471Z,9.31
2023-06-13T12:00:10.152Z,7.12
2023-06-13T12:01:44.711Z,5.38
2023-06-13T12:03:16.509Z,6.46
2023-06-13T12:05:03.507Z,6.59
2023-06-13T12:06:35.320Z,7.51
2023-06-13T12:08:27.559Z,8.92
2023-06-13T12:10:09.228Z,6.97
2023-06-13T12:12:01.313Z,9.67
2023-06-13T12:13:50.510Z,8.47
2023-06-13T12:17:54.515Z,8.69
2023-06-13T12:19:38.285Z,8.91
2023-06-13T12:21:12.625Z,8.82
2023-06-13T12:22:44.754Z,8.15
2023-06-13T12:24:16.635Z,10.07
2023-06-13T12:26:04.601Z,8.69
2023-06-13T12:27:46.213Z,7.56
2023-06-13T12:29:18.540Z,8.68
2023-06-13T12:30:50.244Z,7.09
2023-06-13T12:32:32.066Z,8.55
2023-06-13T12:34:13.678Z,7.02
2023-06-13T12:35:45.369Z,6.87
2023-06-13T12:37:17.042Z,9.14
2023-06-13T12:38:48.879Z,10.55
2023-06-13T12:40:20.816Z,9.45
2023-06-13T12:41:52.708Z,11.52
2023-06-13T12:43:24.298Z,8.50
2023-06-13T12:44:56.030Z,8.19
2023-06-13T12:46:28.856Z,8.42
2023-06-13T12:48:00.710Z,9.34
2023-06-13T12:49:32.500Z,10.15
2023-06-13T12:51:04.134Z,11.72
2023-06-13T12:52:35.801Z,12.23
2023-06-13T12:54:07.565Z,8.51
2023-06-13T12:55:49.290Z,8.67
2023-06-13T12:57:20.967Z,8.85
2023-06-13T12:58:52.656Z,11.10
2023-06-13T13:00:24.655Z,19.23
2023-06-13T13:01:56.520Z,12.94
2023-06-13T13:03:28.315Z,13.29
2023-06-13T13:05:00.162Z,13.76
2023-06-13T13:06:37.024Z,15.51
2023-06-13T13:08:08.703Z,15.34
2023-06-13T13:09:40.876Z,15.56
2023-06-13T13:11:12.683Z,17.66
2023-06-13T13:12:44.848Z,17.85
2023-06-13T13:14:16.579Z,16.24
2023-06-13T13:15:48.758Z,16.78
2023-06-13T13:17:25.552Z,22.27
2023-06-13T13:18:58.742Z,16.12
2023-06-13T13:20:31.538Z,11.06
2023-06-13T13:22:03.353Z,13.04
2023-06-13T13:23:35.134Z,20.45
2023-06-13T13:25:17.326Z,10.10
2023-06-13T13:26:49.321Z,7.64
2023-06-13T13:28:26.020Z,7.84
2023-06-13T13:30:07.916Z,9.40
2023-06-13T13:31:44.717Z,6.40
2023-06-13T13:33:16.468Z,6.15
2023-06-13T13:34:48.206Z,6.31
2023-06-13T13:36:19.974Z,5.30
2023-06-13T13:38:09.682Z,6.20
2023-06-13T13:39:46.656Z,6.41
2023-06-13T13:41:18.465Z,5.08
2023-06-13T13:42:50.231Z,5.25
2023-06-13T13:44:22.696Z,4.94
2023-06-13T13:45:54.617Z,6.35
2023-06-13T13:47:26.783Z,6.00
2023-06-13T13:48:58.820Z,5.10
2023-06-13T13:50:30.838Z,4.68
2023-06-13T13:52:02.537Z,5.02
2023-06-13T13:53:54.245Z,4.70
2023-06-13T13:55:26.128Z,5.09
2023-06-13T13:57:08.239Z,5.54
2023-06-13T13:58:45.851Z,4.86
2023-06-13T14:00:17.586Z,6.61
2023-06-13T14:01:50.577Z,5.69
2023-06-13T14:03:22.950Z,5.37
2023-06-13T14:04:55.023Z,6.72
2023-06-13T14:06:26.863Z,8.66
2023-06-13T14:08:33.744Z,10.43
2023-06-13T14:10:05.606Z,7.51
2023-06-13T14:11:58.650Z,10.40
2023-06-13T14:13:30.550Z,9.25
2023-06-13T14:15:02.536Z,8.51
2023-06-13T14:16:34.456Z,10.98
2023-06-13T14:18:06.266Z,8.00
2023-06-13T14:19:57.177Z,7.95
2023-06-13T14:21:31.355Z,10.13
2023-06-13T14:23:04.558Z,7.30
2023-06-13T14:24:36.343Z,6.90
2023-06-13T14:26:08.093Z,8.06
2023-06-13T14:27:51.267Z,8.13
2023-06-13T14:29:34.810Z,7.72
2023-06-13T14:31:06.594Z,7.54
2023-06-13T14:32:38.382Z,6.54
2023-06-13T14:34:10.447Z,5.91
2023-06-13T14:35:42.221Z,8.95
2023-06-13T14:37:23.907Z,8.13
2023-06-13T14:39:05.871Z,7.42
2023-06-13T14:40:52.668Z,6.88
2023-06-13T14:42:24.490Z,6.27
2023-06-13T14:43:56.502Z,6.90
2023-06-13T14:45:28.329Z,8.28
2023-06-13T14:47:00.034Z,12.94
2023-06-13T14:48:31.799Z,10.90
2023-06-13T14:50:08.496Z,8.57
2023-06-13T14:51:40.244Z,12.94
2023-06-13T14:53:11.996Z,9.53
2023-06-13T14:54:43.664Z,8.66
2023-06-13T14:56:20.475Z,8.31
2023-06-13T14:58:19.900Z,9.34
2023-06-13T14:59:51.667Z,6.22
2023-06-13T15:01:23.949Z,6.33
2023-06-13T15:02:55.905Z,6.98
2023-06-13T15:04:27.866Z,6.09
2023-06-13T15:05:59.705Z,5.08
2023-06-13T15:07:31.444Z,7.55
2023-06-13T15:09:03.346Z,5.86
2023-06-13T15:10:55.030Z,5.81
2023-06-13T15:12:37.059Z,4.50
2023-06-13T15:14:08.731Z,4.70
2023-06-13T15:16:05.897Z,6.40
2023-06-13T15:17:37.903Z,5.85
2023-06-13T15:19:29.678Z,6.35
2023-06-13T15:21:01.415Z,9.76
2023-06-13T15:22:48.571Z,5.71
2023-06-13T15:24:35.765Z,5.95
2023-06-13T15:26:07.509Z,6.23
2023-06-13T15:27:39.252Z,5.04
2023-06-13T15:29:15.915Z,6.82
2023-06-13T15:31:08.785Z,5.68
2023-06-13T15:32:42.232Z,6.37
2023-06-13T15:34:19.078Z,5.17
2023-06-13T15:35:55.641Z,4.77
2023-06-13T15:37:32.376Z,5.30
2023-06-13T15:39:28.537Z,5.11
2023-06-13T15:41:10.186Z,5.16
2023-06-13T15:42:42.225Z,6.85
2023-06-13T15:44:13.966Z,5.32
2023-06-13T15:45:45.780Z,5.16
2023-06-13T15:47:18.780Z,4.96
2023-06-13T15:49:11.635Z,7.35
2023-06-13T15:50:50.956Z,4.68
2023-06-13T15:52:22.849Z,5.10
2023-06-13T15:53:54.669Z,6.10
2023-06-13T15:55:31.424Z,7.09
2023-06-13T15:57:03.529Z,6.98
2023-06-13T15:58:35.324Z,6.55
2023-06-13T16:00:12.042Z,6.32
2023-06-13T16:02:09.081Z,5.15
2023-06-13T16:03:51.069Z,4.41
2023-06-13T16:05:41.414Z,4.56
2023-06-13T16:07:13.369Z,5.06
2023-06-13T16:08:51.236Z,4.96
2023-06-13T16:10:22.971Z,4.50
2023-06-13T16:12:16.243Z,5.73
2023-06-13T16:14:13.928Z,5.10
2023-06-13T16:15:45.752Z,4.99
2023-06-13T16:17:32.873Z,5.74
2023-06-13T16:19:14.737Z,5.24
2023-06-13T16:20:46.554Z,6.52
2023-06-13T16:22:33.256Z,5.82
2023-06-13T16:24:49.056Z,8.03
2023-06-13T16:26:20.781Z,6.91
2023-06-13T16:27:52.739Z,7.08
2023-06-13T16:29:28.399Z,5.77
2023-06-13T16:31:00.191Z,5.99
2023-06-13T16:32:32.110Z,7.76
2023-06-13T16:34:04.317Z,5.66
2023-06-13T16:35:36.062Z,6.64
2023-06-13T16:37:07.742Z,6.50
2023-06-13T16:38:39.570Z,6.16
2023-06-13T16:40:11.426Z,6.44
2023-06-13T16:41:43.115Z,7.16
2023-06-13T16:43:14.888Z,6.31
2023-06-13T16:44:47.684Z,6.14
2023-06-13T16:46:19.375Z,7.16
2023-06-13T16:47:51.167Z,7.03
2023-06-13T16:49:22.849Z,6.77
2023-06-13T16:50:54.637Z,6.51
2023-06-13T16:52:26.315Z,8.98
2023-06-13T16:54:04.520Z,8.84
2023-06-13T16:55:36.451Z,10.30
2023-06-13T16:57:09.719Z,6.93
2023-06-13T16:58:41.343Z,6.20
2023-06-13T17:00:17.894Z,5.72
2023-06-13T17:01:49.583Z,7.25
2023-06-13T17:03:21.411Z,7.76
2023-06-13T17:04:58.030Z,7.40
2023-06-13T17:06:30.001Z,6.57
2023-06-13T17:08:01.586Z,6.27
2023-06-13T17:09:33.361Z,6.80
2023-06-13T17:11:04.981Z,6.15
2023-06-13T17:12:36.601Z,6.70
2023-06-13T17:14:08.367Z,5.35
2023-06-13T17:15:40.098Z,5.73
2023-06-13T17:17:11.878Z,6.53
2023-06-13T17:18:43.559Z,7.57
2023-06-13T17:20:15.300Z,5.58
2023-06-13T17:21:47.084Z,6.65
2023-06-13T17:23:24.002Z,7.04
2023-06-13T17:24:55.688Z,5.97
2023-06-13T17:26:27.699Z,7.02
2023-06-13T17:27:59.388Z,6.60
2023-06-13T17:29:31.036Z,5.71
2023-06-13T17:31:02.772Z,6.33
2023-06-13T17:32:34.538Z,6.91
2023-06-13T17:34:06.378Z,7.65
2023-06-13T17:35:38.598Z,7.49
2023-06-13T17:37:10.244Z,6.74
2023-06-13T17:38:41.891Z,5.69
2023-06-13T17:40:13.536Z,7.18
2023-06-13T17:41:55.177Z,7.44
2023-06-13T17:43:26.964Z,7.62
2023-06-13T17:44:59.381Z,7.42
2023-06-13T17:46:31.085Z,7.29
2023-06-13T17:48:02.749Z,7.29
2023-06-13T17:49:44.469Z,6.54
2023-06-13T17:51:16.332Z,5.70
2023-06-13T17:52:47.874Z,9.88
2023-06-13T17:54:19.662Z,5.71
2023-06-13T17:55:51.303Z,6.30
2023-06-13T17:57:23.001Z,6.54
2023-06-13T17:58:54.704Z,5.69
2023-06-13T18:00:26.463Z,7.10
2023-06-13T18:01:58.371Z,6.66
2023-06-13T18:05:23.443Z,8.88
2023-06-13T18:06:55.068Z,9.22
2023-06-13T18:08:29.892Z,6.40
2023-06-13T18:10:11.459Z,8.00
2023-06-13T18:12:13.165Z,7.66
2023-06-13T18:13:52.091Z,7.78
2023-06-13T18:15:23.886Z,9.38
2023-06-13T18:17:06.117Z,7.64
2023-06-13T18:18:45.952Z,6.95
2023-06-13T18:20:17.790Z,9.26
2023-06-13T18:22:18.318Z,7.48
2023-06-13T18:24:17.199Z,6.63
2023-06-13T18:25:50.051Z,7.70
2023-06-13T18:27:21.623Z,7.87
2023-06-13T18:28:53.333Z,6.50
2023-06-13T18:30:24.980Z,7.85
2023-06-13T18:31:56.705Z,8.06
2023-06-13T18:33:28.306Z,8.98
2023-06-13T18:34:59.979Z,7.83
2023-06-13T18:36:31.488Z,7.18
2023-06-13T18:38:03.302Z,9.25
2023-06-13T18:39:34.861Z,8.16
2023-06-13T18:41:06.454Z,6.91
2023-06-13T18:42:38.126Z,6.93
2023-06-13T18:44:09.973Z,8.64
2023-06-13T18:45:41.555Z,7.78
2023-06-13T18:47:14.131Z,9.15
2023-06-13T18:48:45.866Z,8.90
2023-06-13T18:50:17.441Z,7.68
2023-06-13T18:51:54.190Z,8.51
2023-06-13T18:53:25.819Z,7.95
2023-06-13T18:55:43.471Z,8.05
2023-06-13T18:57:27.671Z,5.95
2023-06-13T18:58:59.537Z,8.24
2023-06-13T19:00:36.408Z,8.64
2023-06-13T19:02:08.257Z,7.37
2023-06-13T19:03:40.812Z,8.59
2023-06-13T19:05:12.700Z,8.13
2023-06-13T19:06:44.423Z,8.24
2023-06-13T19:08:15.954Z,6.32
2023-06-13T19:09:47.470Z,7.13
2023-06-13T19:11:19.071Z,8.14
2023-06-13T19:12:50.574Z,7.50
2023-06-13T19:14:22.067Z,6.46
2023-06-13T19:15:53.573Z,6.64
2023-06-13T19:17:25.371Z,8.42
2023-06-13T19:19:02.151Z,7.33
2023-06-13T19:20:33.733Z,5.95
2023-06-13T19:22:05.271Z,7.14
2023-06-13T19:23:48.812Z,7.44
2023-06-13T19:25:20.414Z,7.70
2023-06-13T19:26:52.092Z,7.06
2023-06-13T19:28:23.744Z,6.98
2023-06-13T19:30:23.775Z,7.66
2023-06-13T19:31:55.400Z,7.80
2023-06-13T19:33:26.931Z,8.27
2023-06-13T19:34:58.504Z,7.89
2023-06-13T19:36:30.124Z,7.30
2023-06-13T19:38:01.857Z,9.10
2023-06-13T19:39:33.493Z,8.00
2023-06-13T19:41:05.130Z,7.03
2023-06-13T19:42:36.696Z,7.69
2023-06-13T19:44:08.348Z,9.65
2023-06-13T19:45:39.877Z,10.46
2023-06-13T19:47:11.398Z,9.00
2023-06-13T19:48:52.943Z,7.85
2023-06-13T19:50:24.518Z,6.91
2023-06-13T19:52:01.049Z,7.94
2023-06-13T19:53:33.529Z,9.11
2023-06-13T19:55:10.671Z,8.74
2023-06-13T19:56:42.537Z,8.26
2023-06-13T19:58:24.007Z,9.00
2023-06-13T19:59:55.504Z,8.86
2023-06-13T20:01:32.205Z,7.11
2023-06-13T20:03:03.990Z,8.15
2023-06-13T20:06:26.913Z,9.61
2023-06-13T20:07:58.474Z,9.16
2023-06-13T20:09:30.276Z,7.89
2023-06-13T20:11:16.610Z,6.83
2023-06-13T20:12:58.490Z,8.73
2023-06-13T20:14:35.536Z,8.43
2023-06-13T20:16:07.384Z,8.06
2023-06-13T20:17:49.082Z,7.82
2023-06-13T20:19:20.564Z,7.66
2023-06-13T20:20:52.098Z,8.48
2023-06-13T20:22:23.813Z,10.08
2023-06-13T20:24:15.328Z,10.56
2023-06-13T20:25:46.854Z,8.25
2023-06-13T20:27:19.897Z,8.01
2023-06-13T20:28:52.827Z,8.17
2023-06-13T20:30:24.575Z,7.23
2023-06-13T20:31:56.194Z,7.63
2023-06-13T20:33:27.774Z,7.72
2023-06-13T20:35:04.320Z,8.90
2023-06-13T20:36:46.001Z,9.29
2023-06-13T20:38:27.738Z,7.96
2023-06-13T20:39:59.221Z,7.89
2023-06-13T20:41:30.895Z,8.96
2023-06-13T20:43:02.452Z,8.30
2023-06-13T20:44:33.913Z,9.73
2023-06-13T20:46:05.648Z,8.30
2023-06-13T20:47:52.737Z,6.89
2023-06-13T20:49:24.318Z,7.04
2023-06-13T20:51:10.599Z,8.26
2023-06-13T20:52:42.101Z,6.88
2023-06-13T20:54:15.299Z,7.41
2023-06-13T20:55:47.076Z,7.64
2023-06-13T20:57:18.741Z,7.41
2023-06-13T20:58:50.462Z,9.93
2023-06-13T21:00:43.063Z,8.27
2023-06-13T21:02:17.877Z,7.99
2023-06-13T21:04:00.817Z,6.81